Time;durP1;ratioP1;P1;durP2;ratioP2;P2;SDS_P1;SDS_P2;PMS_P1;PMS_P2;Temp;Humidity;BMP_temperature;BMP_pressure;BME280_temperature;BME280_humidity;BME280_pressure;Samples;Min_cycle;Max_cycle;Signal;HPM_P1;HPM_P2
2021/09/24 00:01:14;;;;;;;24.70;14.27;;;;;;;14.64;94.10;96529.88;5044214;28;20684;-73
2021/09/24 00:03:41;;;;;;;30.15;15.35;;;;;;;14.58;94.60;96531.66;5044965;28;20228;-74
2021/09/24 00:06:07;;;;;;;27.33;15.27;;;;;;;14.68;93.58;96531.09;5044253;28;20212;-73
2021/09/24 00:08:35;;;;;;;25.85;14.68;;;;;;;14.62;94.17;96519.66;5047850;28;20199;-73
2021/09/24 00:11:02;;;;;;;31.27;16.55;;;;;;;14.55;94.33;96530.22;5047735;28;20203;-73
2021/09/24 00:13:28;;;;;;;32.13;15.85;;;;;;;14.36;95.22;96522.13;5044794;28;20720;-74
2021/09/24 00:15:55;;;;;;;31.55;16.80;;;;;;;14.46;94.38;96520.78;5043865;28;20215;-74
2021/09/24 00:18:22;;;;;;;33.97;16.25;;;;;;;14.47;94.41;96518.94;5046425;28;20970;-73
2021/09/24 00:20:48;;;;;;;34.92;18.48;;;;;;;14.51;94.31;96517.53;5048143;28;20938;-73
2021/09/24 00:23:15;;;;;;;31.48;16.38;;;;;;;14.43;94.95;96515.03;5047443;28;20231;-73
2021/09/24 00:25:43;;;;;;;31.40;17.23;;;;;;;14.42;95.58;96508.09;5047001;28;20201;-73
2021/09/24 00:28:09;;;;;;;33.50;17.13;;;;;;;14.33;96.09;96498.63;5049611;28;20209;-73
2021/09/24 00:30:36;;;;;;;32.78;17.20;;;;;;;14.21;97.71;96508.94;5047468;28;20193;-74
2021/09/24 00:33:03;;;;;;;33.28;17.00;;;;;;;14.36;96.80;96514.19;5047899;28;20231;-74
2021/09/24 00:35:29;;;;;;;31.33;17.38;;;;;;;14.46;95.48;96499.56;5047423;28;20219;-73
2021/09/24 00:37:56;;;;;;;35.63;16.90;;;;;;;14.41;95.65;96507.28;5047851;28;21314;-73
2021/09/24 00:40:22;;;;;;;31.27;16.55;;;;;;;14.38;95.24;96502.34;5049707;28;20228;-73
2021/09/24 00:42:50;;;;;;;39.90;17.80;;;;;;;14.52;95.35;96495.31;5051679;28;20738;-74
2021/09/24 00:45:17;;;;;;;36.15;16.60;;;;;;;14.37;95.08;96508.69;5050669;28;20208;-74
2021/09/24 00:47:43;;;;;;;37.80;16.92;;;;;;;14.29;94.96;96508.00;5046846;28;20216;-73
2021/09/24 00:50:11;;;;;;;37.38;18.08;;;;;;;14.36;95.64;96503.56;5053437;28;20209;-73
2021/09/24 00:52:37;;;;;;;38.08;17.92;;;;;;;14.29;95.17;96502.69;5048039;28;20717;-74
2021/09/24 00:55:05;;;;;;;34.25;17.73;;;;;;;14.31;95.59;96506.00;5051205;28;20226;-73
2021/09/24 00:57:31;;;;;;;33.90;16.77;;;;;;;14.14;95.80;96507.25;5046815;28;20335;-74
2021/09/24 00:59:59;;;;;;;33.30;17.80;;;;;;;14.29;95.18;96503.50;5047940;28;20205;-73
2021/09/24 01:02:26;;;;;;;33.47;16.23;;;;;;;14.10;95.11;96506.00;5047559;28;20253;-73
2021/09/24 01:04:52;;;;;;;37.70;18.10;;;;;;;14.18;94.84;96508.53;5054888;28;20231;-73
2021/09/24 01:07:19;;;;;;;30.52;16.15;;;;;;;14.24;94.78;96505.09;5049131;28;20205;-74
2021/09/24 01:09:45;;;;;;;35.80;17.85;;;;;;;14.01;95.45;96496.53;5057896;28;20204;-72
2021/09/24 01:12:12;;;;;;;34.03;17.27;;;;;;;13.98;95.44;96507.53;5046268;28;20583;-73
2021/09/24 01:14:38;;;;;;;33.45;17.30;;;;;;;14.05;95.03;96508.38;5048270;28;20201;-73
2021/09/24 01:17:06;;;;;;;32.58;16.52;;;;;;;14.27;94.60;96508.19;5046935;28;20216;-72
2021/09/24 01:19:33;;;;;;;36.63;17.23;;;;;;;14.17;94.92;96509.53;5045285;28;20197;-73
2021/09/24 01:22:01;;;;;;;33.22;16.75;;;;;;;14.31;94.76;96503.34;5049172;28;20727;-73
2021/09/24 01:24:28;;;;;;;32.67;16.17;;;;;;;14.20;94.58;96509.97;5045652;28;20231;-72
2021/09/24 01:26:57;;;;;;;34.92;17.02;;;;;;;14.32;93.95;96508.44;5050087;28;20209;-71
2021/09/24 01:29:25;;;;;;;33.53;16.30;;;;;;;14.25;94.14;96510.19;5047445;28;20209;-72
2021/09/24 01:31:52;;;;;;;35.25;17.83;;;;;;;14.10;94.34;96517.44;5048651;28;20668;-71
2021/09/24 01:34:18;;;;;;;31.20;15.80;;;;;;;14.13;94.53;96519.72;5046943;28;20926;-73
2021/09/24 01:36:45;;;;;;;31.37;16.00;;;;;;;14.23;93.97;96516.72;5046101;28;20201;-71
2021/09/24 01:39:13;;;;;;;35.05;17.05;;;;;;;14.41;93.75;96506.44;5052625;28;20205;-71
2021/09/24 01:41:41;;;;;;;33.70;16.77;;;;;;;14.34;93.35;96510.88;5047155;28;20229;-73
2021/09/24 01:44:07;;;;;;;31.08;15.50;;;;;;;14.22;93.65;96512.44;5046502;28;20312;-73
2021/09/24 01:46:37;;;;;;;32.40;17.07;;;;;;;14.33;92.84;96509.25;5049573;28;20201;-71
2021/09/24 01:49:04;;;;;;;32.92;16.80;;;;;;;14.13;92.98;96505.66;5050821;28;20227;-72
2021/09/24 01:51:31;;;;;;;38.10;16.75;;;;;;;14.10;93.17;96495.41;5046663;28;20198;-73
2021/09/24 01:53:57;;;;;;;31.88;16.95;;;;;;;13.87;93.70;96502.72;5045691;28;20237;-72
2021/09/24 01:56:25;;;;;;;34.53;17.92;;;;;;;13.89;95.67;96502.56;5048865;28;20206;-73
2021/09/24 01:58:52;;;;;;;32.78;17.13;;;;;;;13.79;94.66;96499.41;5050238;28;20209;-73
2021/09/24 02:01:18;;;;;;;33.67;17.43;;;;;;;13.57;95.47;96495.94;5044866;28;20251;-71
2021/09/24 02:03:45;;;;;;;35.08;17.65;;;;;;;13.71;95.43;96503.00;5045764;28;20236;-71
2021/09/24 02:06:11;;;;;;;36.95;17.08;;;;;;;13.68;96.60;96498.09;5047396;28;20576;-73
2021/09/24 02:08:38;;;;;;;36.88;17.02;;;;;;;13.59;97.75;96488.63;5049798;28;20204;-72
2021/09/24 02:11:05;;;;;;;35.72;16.70;;;;;;;13.87;96.28;96492.13;5049374;28;21153;-71
2021/09/24 02:13:33;;;;;;;40.90;19.10;;;;;;;13.76;97.84;96487.34;5046189;28;20237;-72
2021/09/24 02:16:00;;;;;;;35.67;18.00;;;;;;;13.52;97.99;96494.88;5045626;28;20209;-71
2021/09/24 02:18:26;;;;;;;36.35;17.65;;;;;;;13.53;97.80;96486.72;5045734;28;20205;-73
2021/09/24 02:20:53;;;;;;;36.92;17.33;;;;;;;13.74;97.29;96491.22;5046347;28;20638;-72
2021/09/24 02:23:19;;;;;;;37.28;17.70;;;;;;;13.63;97.04;96489.88;5048261;28;20225;-73
2021/09/24 02:25:46;;;;;;;34.17;16.73;;;;;;;13.74;96.03;96494.66;5048331;28;20204;-73
2021/09/24 02:28:12;;;;;;;38.42;17.45;;;;;;;13.75;95.60;96498.97;5048082;28;20210;-72
2021/09/24 02:30:40;;;;;;;33.25;16.45;;;;;;;13.91;95.31;96496.03;5046121;28;20204;-73
2021/09/24 02:33:07;;;;;;;34.42;17.45;;;;;;;13.53;96.18;96499.97;5046469;28;20232;-73
2021/09/24 02:35:33;;;;;;;34.00;17.00;;;;;;;13.60;95.93;96494.75;5045145;28;20978;-72
2021/09/24 02:38:00;;;;;;;35.08;17.02;;;;;;;13.72;95.10;96493.22;5048829;28;20208;-74
2021/09/24 02:40:27;;;;;;;32.92;16.27;;;;;;;13.58;95.13;96488.78;5046003;28;20787;-72
2021/09/24 02:42:54;;;;;;;33.33;17.00;;;;;;;13.58;95.22;96492.28;5045870;28;20229;-73
2021/09/24 02:45:20;;;;;;;32.93;17.13;;;;;;;13.61;94.92;96502.50;5046945;28;20213;-73
2021/09/24 02:47:48;;;;;;;30.47;15.43;;;;;;;13.61;96.40;96491.91;5048340;28;20208;-73
2021/09/24 02:50:15;;;;;;;35.28;16.50;;;;;;;13.74;95.43;96496.50;5047831;28;20211;-73
2021/09/24 02:52:41;;;;;;;30.95;15.77;;;;;;;13.77;94.74;96499.59;5045407;28;20217;-73
2021/09/24 02:55:09;;;;;;;28.97;15.80;;;;;;;13.78;94.94;96498.56;5045659;28;20209;-73
2021/09/24 02:57:36;;;;;;;30.42;15.23;;;;;;;13.86;94.58;96495.81;5044905;28;20201;-73
2021/09/24 03:00:05;;;;;;;31.50;15.05;;;;;;;13.74;95.76;96489.38;5041573;28;20205;-73
2021/09/24 03:02:32;;;;;;;30.83;15.27;;;;;;;13.54;96.01;96487.53;5047015;28;20228;-73
2021/09/24 03:05:00;;;;;;;28.17;14.70;;;;;;;13.81;95.94;96484.13;5049187;28;20609;-72
2021/09/24 03:07:26;;;;;;;31.07;15.17;;;;;;;13.88;93.99;96492.97;5044729;28;20210;-73
2021/09/24 03:09:52;;;;;;;28.67;14.07;;;;;;;13.76;93.97;96487.34;5044948;28;20212;-73
2021/09/24 03:12:19;;;;;;;32.88;15.70;;;;;;;13.69;94.24;96491.75;5046804;28;20283;-73
2021/09/24 03:14:45;;;;;;;31.27;15.52;;;;;;;13.68;94.04;96498.09;5045910;28;20208;-73
2021/09/24 03:17:12;;;;;;;28.53;14.80;;;;;;;13.73;93.81;96493.00;5050795;28;20216;-73
2021/09/24 03:19:38;;;;;;;26.67;14.82;;;;;;;13.75;93.40;96501.59;5045343;28;20209;-73
2021/09/24 03:22:06;;;;;;;29.30;14.25;;;;;;;13.66;94.35;96501.94;5045436;28;20264;-74
2021/09/24 03:24:33;;;;;;;27.55;14.25;;;;;;;13.67;93.68;96496.44;5045317;28;20201;-74
2021/09/24 03:26:59;;;;;;;27.98;13.77;;;;;;;13.50;93.88;96491.56;5044292;28;20205;-73
2021/09/24 03:29:26;;;;;;;26.85;14.13;;;;;;;13.62;94.24;96496.19;5047834;28;20201;-74
2021/09/24 03:31:53;;;;;;;29.75;15.20;;;;;;;13.57;94.88;96485.34;5048229;28;20201;-74
2021/09/24 03:34:19;;;;;;;28.70;14.07;;;;;;;13.63;93.65;96499.66;5046278;28;20235;-73
2021/09/24 03:36:46;;;;;;;28.63;14.30;;;;;;;13.69;93.02;96499.72;5044498;28;20584;-72
2021/09/24 03:39:14;;;;;;;28.10;13.77;;;;;;;13.75;92.81;96506.91;5045389;28;20758;-74
2021/09/24 03:41:43;;;;;;;29.13;13.63;;;;;;;13.77;92.77;96496.13;5044645;28;20229;-73
2021/09/24 03:44:10;;;;;;;28.10;14.48;;;;;;;13.53;93.44;96492.03;5045134;28;20232;-73
2021/09/24 03:46:36;;;;;;;27.03;14.27;;;;;;;13.53;93.40;96493.84;5047717;28;20201;-73
2021/09/24 03:49:03;;;;;;;26.05;13.65;;;;;;;13.57;92.90;96485.34;5048020;28;20215;-74
2021/09/24 03:51:30;;;;;;;26.33;13.87;;;;;;;13.37;92.81;96477.41;5047641;28;20192;-73
2021/09/24 03:53:56;;;;;;;25.03;13.20;;;;;;;13.32;93.65;96479.78;5048356;28;20589;-73
2021/09/24 03:56:24;;;;;;;26.77;13.20;;;;;;;13.39;94.55;96487.59;5045041;28;20204;-73
2021/09/24 03:58:51;;;;;;;26.10;14.10;;;;;;;13.27;94.05;96482.97;5047281;28;20228;-74
2021/09/24 04:01:18;;;;;;;28.67;13.80;;;;;;;13.30;93.91;96479.16;5047630;28;20205;-74
2021/09/24 04:03:44;;;;;;;30.53;13.47;;;;;;;13.23;93.84;96480.91;5052308;28;20273;-73
2021/09/24 04:06:11;;;;;;;25.80;13.38;;;;;;;13.27;93.46;96476.88;5050341;28;20204;-72
2021/09/24 04:08:38;;;;;;;25.50;13.53;;;;;;;13.30;93.80;96481.78;5048733;28;20209;-74
2021/09/24 04:11:05;;;;;;;28.20;14.73;;;;;;;13.29;93.70;96480.16;5048637;28;20208;-73
2021/09/24 04:13:33;;;;;;;26.27;13.93;;;;;;;13.18;94.78;96480.66;5051407;28;20754;-73
2021/09/24 04:15:59;;;;;;;23.93;13.20;;;;;;;13.09;93.67;96492.34;5047982;28;20208;-73
2021/09/24 04:18:26;;;;;;;24.03;12.77;;;;;;;13.11;94.03;96487.69;5050782;28;20574;-73
2021/09/24 04:20:52;;;;;;;28.27;13.60;;;;;;;13.04;94.18;96478.88;5051979;28;20209;-73
2021/09/24 04:23:19;;;;;;;28.70;13.40;;;;;;;13.13;93.14;96483.84;5049659;28;20239;-73
2021/09/24 04:25:45;;;;;;;28.40;13.57;;;;;;;13.08;92.85;96473.00;5047771;28;20212;-73
2021/09/24 04:28:12;;;;;;;25.13;12.63;;;;;;;13.12;92.94;96489.31;5049944;28;20580;-73
2021/09/24 04:30:39;;;;;;;24.93;13.13;;;;;;;13.16;93.27;96485.31;5051545;28;20208;-73
2021/09/24 04:33:07;;;;;;;21.93;12.10;;;;;;;13.09;93.72;96489.72;5050970;28;20676;-73
2021/09/24 04:35:33;;;;;;;24.23;12.30;;;;;;;12.92;93.41;96494.38;5047406;28;20204;-72
2021/09/24 04:38:00;;;;;;;22.30;11.83;;;;;;;12.84;94.18;96497.13;5048502;28;20216;-73
2021/09/24 04:40:26;;;;;;;25.10;12.40;;;;;;;12.78;94.86;96500.47;5050080;28;20216;-72
2021/09/24 04:42:53;;;;;;;26.90;12.80;;;;;;;12.91;94.15;96491.94;5046382;28;20232;-74
2021/09/24 04:45:19;;;;;;;21.17;11.73;;;;;;;13.05;92.73;96499.03;5049750;28;20216;-72
2021/09/24 04:47:47;;;;;;;22.60;11.67;;;;;;;13.21;93.11;96498.78;5050033;28;20204;-74
2021/09/24 04:50:14;;;;;;;22.10;11.83;;;;;;;13.13;92.62;96501.56;5046221;28;20205;-71
2021/09/24 04:52:41;;;;;;;23.77;11.57;;;;;;;13.12;92.30;96499.91;5047499;28;20224;-72
2021/09/24 04:55:09;;;;;;;22.47;11.40;;;;;;;13.17;91.95;96503.63;5046821;28;20212;-72
2021/09/24 04:57:35;;;;;;;29.20;14.40;;;;;;;13.12;91.96;96511.34;5050336;28;20207;-71
2021/09/24 05:00:03;;;;;;;24.53;13.10;;;;;;;13.12;91.86;96515.78;5050909;28;20220;-71
2021/09/24 05:02:29;;;;;;;27.53;14.77;;;;;;;13.05;91.82;96520.19;5045211;28;20221;-72
2021/09/24 05:04:57;;;;;;;23.07;13.07;;;;;;;13.22;91.49;96516.31;5047582;28;20220;-72
2021/09/24 05:07:24;;;;;;;23.20;12.27;;;;;;;13.06;91.06;96519.16;5049945;28;20208;-72
2021/09/24 05:09:50;;;;;;;21.30;11.57;;;;;;;13.03;91.03;96517.72;5050450;28;20200;-71
2021/09/24 05:12:17;;;;;;;22.93;11.83;;;;;;;13.09;90.37;96516.16;5049199;28;20208;-72
2021/09/24 05:14:43;;;;;;;22.07;11.50;;;;;;;13.02;90.67;96523.19;5047613;28;20225;-71
2021/09/24 05:17:10;;;;;;;19.63;10.70;;;;;;;12.98;90.97;96513.97;5047248;28;20316;-72
2021/09/24 05:19:36;;;;;;;18.63;10.03;;;;;;;13.01;90.68;96518.94;5056766;28;20204;-71
2021/09/24 05:22:05;;;;;;;20.73;11.25;;;;;;;13.11;90.63;96509.69;5051152;28;20268;-71
2021/09/24 05:24:32;;;;;;;22.53;10.30;;;;;;;12.85;91.42;96513.78;5046714;28;20201;-70
2021/09/24 05:27:00;;;;;;;22.85;11.32;;;;;;;12.73;92.71;96509.16;5046203;28;20205;-71
2021/09/24 05:29:26;;;;;;;20.23;10.48;;;;;;;12.75;91.93;96513.25;5047698;28;21250;-69
2021/09/24 05:31:53;;;;;;;21.92;11.30;;;;;;;12.69;93.33;96513.16;5047503;28;20212;-71
2021/09/24 05:34:19;;;;;;;22.95;11.00;;;;;;;12.88;92.33;96514.28;5048640;28;20225;-71
2021/09/24 05:36:46;;;;;;;24.00;10.50;;;;;;;12.97;92.18;96504.41;5049803;28;20833;-70
2021/09/24 05:39:14;;;;;;;20.17;10.33;;;;;;;13.09;91.67;96505.59;5049968;28;20212;-71
2021/09/24 05:41:40;;;;;;;22.87;10.70;;;;;;;13.06;91.63;96505.94;5046721;28;20197;-70
2021/09/24 05:44:07;;;;;;;18.63;10.10;;;;;;;12.94;91.69;96507.44;5046631;28;20229;-70
2021/09/24 05:46:33;;;;;;;19.83;9.97;;;;;;;13.11;92.17;96504.41;5049485;28;20196;-70
2021/09/24 05:49:00;;;;;;;18.57;9.40;;;;;;;13.26;91.80;96504.34;5050361;28;20200;-71
2021/09/24 05:51:26;;;;;;;18.13;10.00;;;;;;;13.34;90.62;96510.34;5046936;28;20196;-69
2021/09/24 05:53:53;;;;;;;17.57;9.80;;;;;;;13.39;89.95;96507.97;5046831;28;20221;-71
2021/09/24 05:56:21;;;;;;;19.30;9.87;;;;;;;13.67;90.13;96517.63;5047987;28;20204;-69
2021/09/24 05:58:47;;;;;;;18.70;10.57;;;;;;;13.48;90.35;96520.09;5049708;28;20227;-70
2021/09/24 06:01:14;;;;;;;19.65;10.27;;;;;;;13.57;90.26;96516.31;5045934;28;20208;-70
2021/09/24 06:03:40;;;;;;;18.27;10.03;;;;;;;13.55;90.12;96518.31;5046694;28;20283;-70
2021/09/24 06:06:07;;;;;;;17.33;9.90;;;;;;;13.47;90.13;96527.19;5046228;28;20209;-70
2021/09/24 06:08:33;;;;;;;22.07;9.37;;;;;;;13.60;90.42;96537.91;5049548;28;20205;-71
2021/09/24 06:11:00;;;;;;;19.57;9.93;;;;;;;13.67;90.21;96537.97;5049946;28;20200;-71
2021/09/24 06:13:28;;;;;;;18.40;10.38;;;;;;;13.92;89.78;96537.41;5048753;28;20246;-71
2021/09/24 06:15:54;;;;;;;18.40;10.60;;;;;;;13.66;90.75;96537.16;5048903;28;20215;-70
2021/09/24 06:18:22;;;;;;;18.70;9.48;;;;;;;13.84;89.31;96542.84;5047378;28;20211;-70
2021/09/24 06:20:48;;;;;;;20.48;10.57;;;;;;;13.87;89.45;96545.09;5046153;28;20296;-70
2021/09/24 06:23:15;;;;;;;19.83;10.73;;;;;;;13.81;89.60;96543.25;5047174;28;20232;-70
2021/09/24 06:25:41;;;;;;;18.55;9.82;;;;;;;13.82;89.18;96546.69;5048674;28;20212;-71
2021/09/24 06:28:08;;;;;;;17.70;9.77;;;;;;;13.84;89.10;96547.34;5048645;28;20989;-70
2021/09/24 06:30:36;;;;;;;19.67;9.70;;;;;;;14.06;89.09;96549.78;5046218;28;20201;-70
2021/09/24 06:33:03;;;;;;;19.10;9.47;;;;;;;14.02;88.97;96559.13;5045525;28;20236;-71
2021/09/24 06:35:29;;;;;;;18.90;9.82;;;;;;;13.98;90.33;96551.75;5045528;28;20212;-70
2021/09/24 06:37:55;;;;;;;15.35;9.27;;;;;;;13.90;89.61;96554.50;5045914;28;20204;-71
2021/09/24 06:40:22;;;;;;;19.73;10.07;;;;;;;14.13;88.72;96556.81;5047806;28;20300;-70
2021/09/24 06:42:48;;;;;;;18.90;9.35;;;;;;;14.27;87.61;96557.75;5048755;28;20232;-71
2021/09/24 06:45:15;;;;;;;17.00;9.60;;;;;;;14.27;88.13;96555.09;5047562;28;20685;-71
2021/09/24 06:47:43;;;;;;;15.63;9.00;;;;;;;14.47;87.72;96558.72;5045320;28;20205;-71
2021/09/24 06:50:12;;;;;;;15.63;8.43;;;;;;;14.65;87.31;96563.34;5046265;28;21040;-70
2021/09/24 06:52:38;;;;;;;14.98;8.80;;;;;;;14.47;87.73;96564.00;5048632;28;21033;-71
2021/09/24 06:55:06;;;;;;;15.25;8.77;;;;;;;14.59;87.98;96565.09;5042369;28;20205;-71
2021/09/24 06:57:33;;;;;;;17.88;8.43;;;;;;;14.63;87.54;96577.00;5044897;28;20201;-70
2021/09/24 07:00:00;;;;;;;14.20;8.38;;;;;;;14.84;86.87;96573.25;5045027;28;20201;-70
2021/09/24 07:02:26;;;;;;;14.45;8.20;;;;;;;14.91;86.56;96573.28;5045753;28;20232;-69
2021/09/24 07:04:54;;;;;;;14.40;7.70;;;;;;;15.28;85.94;96571.06;5049287;28;20213;-71
2021/09/24 07:07:21;;;;;;;13.98;8.65;;;;;;;14.96;86.84;96578.84;5046301;28;20201;-71
2021/09/24 07:09:47;;;;;;;15.77;8.80;;;;;;;15.11;87.04;96583.00;5046005;28;20969;-71
2021/09/24 07:12:13;;;;;;;15.60;8.45;;;;;;;15.26;85.90;96575.75;5046376;28;20204;-70
2021/09/24 07:14:40;;;;;;;13.30;8.27;;;;;;;15.00;86.56;96583.56;5048895;28;20212;-71
2021/09/24 07:17:07;;;;;;;14.93;7.85;;;;;;;15.14;85.87;96584.47;5047287;28;20200;-71
2021/09/24 07:19:33;;;;;;;14.18;8.52;;;;;;;15.23;86.11;96578.00;5045014;28;20288;-70
2021/09/24 07:22:01;;;;;;;14.77;7.95;;;;;;;15.54;85.42;96576.47;5045299;28;20221;-71
2021/09/24 07:24:28;;;;;;;15.50;8.10;;;;;;;15.40;86.49;96577.44;5047872;28;20662;-70
2021/09/24 07:26:55;;;;;;;18.08;8.85;;;;;;;15.76;84.83;96581.47;5047764;28;20208;-69
2021/09/24 07:29:21;;;;;;;15.52;8.43;;;;;;;15.68;85.39;96578.16;5046355;28;20207;-70
2021/09/24 07:31:47;;;;;;;13.50;8.73;;;;;;;15.85;85.13;96573.09;5044342;28;20205;-71
2021/09/24 07:34:14;;;;;;;16.23;7.63;;;;;;;15.84;85.27;96568.78;5045348;28;20224;-70
2021/09/24 07:36:41;;;;;;;14.20;7.80;;;;;;;16.01;84.71;96574.56;5048322;28;20270;-71
2021/09/24 07:39:09;;;;;;;13.18;7.90;;;;;;;16.30;84.11;96568.91;5047181;28;20672;-71
2021/09/24 07:41:35;;;;;;;15.73;7.90;;;;;;;16.31;84.03;96576.69;5044890;28;20197;-71
2021/09/24 07:44:03;;;;;;;13.95;8.48;;;;;;;16.33;83.59;96579.97;5044732;28;20224;-71
2021/09/24 07:46:31;;;;;;;14.18;7.93;;;;;;;16.42;83.45;96576.09;5045880;28;20204;-71
2021/09/24 07:48:57;;;;;;;13.30;7.53;;;;;;;16.47;82.62;96581.59;5046256;28;20197;-71
2021/09/24 07:51:24;;;;;;;13.43;7.28;;;;;;;16.53;83.38;96578.94;5046839;28;20216;-73
2021/09/24 07:53:50;;;;;;;11.73;6.97;;;;;;;16.79;83.69;96578.91;5048818;28;20217;-71
2021/09/24 07:56:18;;;;;;;14.20;7.28;;;;;;;17.03;82.62;96583.59;5045011;28;20204;-72
2021/09/24 07:58:45;;;;;;;11.55;6.82;;;;;;;16.86;82.11;96578.91;5046814;28;20200;-71
2021/09/24 08:01:11;;;;;;;15.35;7.47;;;;;;;17.13;81.96;96583.97;5041809;28;20216;-72
2021/09/24 08:03:38;;;;;;;13.52;7.13;;;;;;;17.24;81.97;96580.66;5052135;28;20266;-72
2021/09/24 08:06:05;;;;;;;12.38;7.38;;;;;;;17.17;81.64;96575.34;5046173;28;20212;-72
2021/09/24 08:08:32;;;;;;;10.95;6.80;;;;;;;17.24;81.50;96578.00;5050508;28;20303;-71
2021/09/24 08:10:59;;;;;;;12.38;6.60;;;;;;;17.49;80.96;96573.63;5039522;28;20212;-72
2021/09/24 08:13:27;;;;;;;13.10;6.72;;;;;;;17.71;80.31;96576.59;5053059;28;20224;-71
2021/09/24 08:15:55;;;;;;;12.05;6.53;;;;;;;17.61;79.17;96580.75;5042598;28;20235;-72
2021/09/24 08:18:22;;;;;;;11.98;6.20;;;;;;;17.63;79.59;96575.22;5043611;28;20829;-71
2021/09/24 08:20:49;;;;;;;10.15;6.50;;;;;;;17.95;79.34;96569.72;5052211;28;20258;-71
2021/09/24 08:23:16;;;;;;;13.65;6.80;;;;;;;17.95;78.36;96569.72;5053080;28;20231;-71
2021/09/24 08:25:43;;;;;;;11.63;6.15;;;;;;;17.91;77.53;96568.53;5039272;28;20208;-72
2021/09/24 08:28:11;;;;;;;13.73;7.30;;;;;;;18.27;78.09;96577.53;5044264;28;20211;-72
2021/09/24 08:30:39;;;;;;;12.35;6.75;;;;;;;18.32;76.86;96577.72;5047378;28;20216;-71
2021/09/24 08:33:06;;;;;;;9.23;5.93;;;;;;;18.13;75.80;96570.63;5048237;28;20220;-72
2021/09/24 08:35:32;;;;;;;10.93;6.05;;;;;;;18.25;75.61;96566.25;5047308;28;20203;-71
2021/09/24 08:37:59;;;;;;;13.43;6.57;;;;;;;18.33;74.98;96578.50;5046576;28;20208;-71
2021/09/24 08:40:28;;;;;;;10.70;6.13;;;;;;;18.47;74.26;96573.69;5049062;28;20201;-72
2021/09/24 08:42:54;;;;;;;10.93;6.13;;;;;;;18.60;75.42;96570.91;5041323;28;20248;-72
2021/09/24 08:45:26;;;;;;;10.20;6.03;;;;;;;18.69;74.20;96576.81;5047648;28;20592;-73
2021/09/24 08:47:55;;;;;;;11.35;5.70;;;;;;;18.61;74.12;96569.03;5048103;28;20211;-71
2021/09/24 08:50:22;;;;;;;13.35;6.38;;;;;;;18.82;74.54;96574.00;5050886;28;20206;-72
2021/09/24 08:52:49;;;;;;;11.45;6.82;;;;;;;19.18;74.79;96569.56;5047188;28;20705;-72
2021/09/24 08:55:16;;;;;;;14.55;7.18;;;;;;;19.22;72.38;96570.75;5049002;28;20680;-71
2021/09/24 08:57:43;;;;;;;10.77;6.60;;;;;;;19.43;74.37;96570.31;5050696;28;20208;-71
2021/09/24 09:00:12;;;;;;;10.15;6.32;;;;;;;19.46;71.76;96572.53;5048073;28;20203;-73
2021/09/24 09:03:08;;;;;;;10.00;6.10;;;;;;;19.29;71.86;96568.84;5047088;28;20236;-70
2021/09/24 09:05:36;;;;;;;12.40;6.30;;;;;;;19.28;71.63;96575.22;5037718;28;21091;-72
2021/09/24 09:08:15;;;;;;;11.38;6.32;;;;;;;19.15;72.39;96572.69;5047367;28;20205;-71
2021/09/24 09:10:48;;;;;;;8.88;6.03;;;;;;;19.08;72.40;96570.09;5047538;28;20676;-71
2021/09/24 09:13:15;;;;;;;10.05;6.13;;;;;;;19.18;72.24;96564.22;5047807;28;20756;-71
2021/09/24 09:15:52;;;;;;;9.30;5.90;;;;;;;19.37;70.12;96565.84;5050382;28;20208;-72
2021/09/24 09:18:20;;;;;;;10.65;5.97;;;;;;;19.40;70.70;96568.91;5048657;28;20200;-71
2021/09/24 09:20:48;;;;;;;9.10;5.82;;;;;;;19.63;71.36;96569.84;5047197;28;20205;-72
2021/09/24 09:23:15;;;;;;;6.82;3.50;;;;;;;19.37;71.07;96565.84;5048115;28;20229;-73
2021/09/24 09:25:43;;;;;;;9.23;6.00;;;;;;;19.75;70.79;96564.56;5050395;28;20204;-70
2021/09/24 09:28:15;;;;;;;9.15;5.93;;;;;;;19.77;70.15;96568.63;5049296;28;20200;-72
2021/09/24 09:30:44;;;;;;;9.27;5.60;;;;;;;19.91;70.26;96554.09;5047391;28;20209;-73
2021/09/24 09:33:15;;;;;;;13.02;6.13;;;;;;;20.22;68.46;96564.53;5047685;28;20225;-73
2021/09/24 09:35:46;;;;;;;9.55;5.30;;;;;;;20.37;68.44;96557.72;5050162;28;20205;-71
2021/09/24 09:38:21;;;;;;;12.90;6.03;;;;;;;20.26;67.84;96555.00;5048498;28;20201;-71
2021/09/24 09:40:52;;;;;;;10.05;5.93;;;;;;;20.60;67.44;96559.63;5047062;28;20209;-71
2021/09/24 09:43:24;;;;;;;7.90;5.60;;;;;;;20.39;67.03;96554.78;5048196;28;20223;-73
2021/09/24 09:45:51;;;;;;;9.73;5.90;;;;;;;20.28;65.50;96548.38;5049491;28;20204;-73
2021/09/24 09:48:17;;;;;;;9.73;6.63;;;;;;;20.13;65.77;96546.38;5047573;28;20208;-70
2021/09/24 09:50:45;;;;;;;9.68;6.70;;;;;;;20.35;67.14;96549.13;5047268;28;20206;-71
2021/09/24 09:53:15;;;;;;;10.55;5.50;;;;;;;20.43;66.10;96538.06;5047820;28;20225;-72
2021/09/24 09:55:43;;;;;;;7.72;5.45;;;;;;;20.59;65.45;96542.72;5048400;28;20281;-73
2021/09/24 09:58:12;;;;;;;14.13;5.60;;;;;;;20.78;65.33;96538.13;5049412;28;20212;-71
2021/09/24 10:00:55;;;;;;;9.68;5.97;;;;;;;20.99;64.31;96536.50;5044543;28;20209;-72
2021/09/24 10:03:29;;;;;;;10.10;6.15;;;;;;;20.42;64.40;96532.94;5047136;28;20231;-73
2021/09/24 10:05:57;;;;;;;10.48;5.82;;;;;;;20.62;65.73;96528.91;5045868;28;20209;-72
2021/09/24 10:08:26;;;;;;;11.15;5.70;;;;;;;20.79;64.03;96532.53;5048996;28;20205;-71
2021/09/24 10:11:05;;;;;;;9.60;5.95;;;;;;;21.08;63.12;96539.66;5046109;28;20205;-73
2021/09/24 10:13:35;;;;;;;8.93;5.50;;;;;;;20.96;63.64;96536.97;5045834;28;20225;-73
2021/09/24 10:16:03;;;;;;;7.80;5.25;;;;;;;21.17;63.38;96533.69;5046024;28;20209;-73
2021/09/24 10:18:31;;;;;;;7.43;4.32;;;;;;;20.85;61.01;96536.97;5046456;28;20736;-71
2021/09/24 10:20:59;;;;;;;8.65;4.50;;;;;;;20.85;61.24;96535.09;5045987;28;20201;-72
2021/09/24 10:23:25;;;;;;;6.30;4.07;;;;;;;20.90;59.58;96532.53;5047820;28;20221;-72
2021/09/24 10:25:58;;;;;;;8.90;4.50;;;;;;;21.51;59.36;96532.81;5045218;28;20221;-71
2021/09/24 10:28:30;;;;;;;7.65;4.35;;;;;;;21.15;59.20;96535.78;5047785;28;20205;-71
2021/09/24 10:30:58;;;;;;;7.00;4.70;;;;;;;21.20;60.95;96527.84;5049995;28;20204;-71
2021/09/24 10:33:43;;;;;;;7.13;4.82;;;;;;;21.50;58.35;96521.28;5046306;28;20225;-71
2021/09/24 10:36:32;;;;;;;9.45;4.50;;;;;;;21.09;59.74;96528.69;5045405;28;20205;-72
2021/09/24 10:38:59;;;;;;;6.30;4.57;;;;;;;21.09;60.02;96519.81;5049131;28;20214;-71
2021/09/24 10:41:25;;;;;;;6.97;4.50;;;;;;;21.47;61.17;96524.41;5046491;28;20236;-72
2021/09/24 10:43:54;;;;;;;6.30;4.32;;;;;;;21.35;59.81;96522.81;5045368;28;20236;-72
2021/09/24 10:46:37;;;;;;;8.63;4.45;;;;;;;21.80;59.87;96513.03;5046884;28;20257;-72
2021/09/24 10:49:31;;;;;;;6.75;4.07;;;;;;;21.82;58.18;96511.72;5046499;28;20259;-72
2021/09/24 10:52:13;;;;;;;6.65;4.25;;;;;;;22.13;57.45;96508.53;5036012;28;20201;-72
2021/09/24 10:54:54;;;;;;;5.85;3.70;;;;;;;22.13;54.94;96506.69;5045194;28;20201;-71
2021/09/24 10:57:21;;;;;;;7.72;4.20;;;;;;;21.59;55.51;96505.66;5046871;28;20205;-71
2021/09/24 10:59:47;;;;;;;7.20;4.32;;;;;;;21.85;55.97;96510.44;5048488;28;20211;-73
2021/09/24 11:02:38;;;;;;;6.18;4.18;;;;;;;21.83;53.98;96505.31;5043809;28;20201;-72
2021/09/24 11:05:06;;;;;;;4.32;2.72;;;;;;;21.55;52.73;96505.28;5044968;28;20607;-72
2021/09/24 11:07:36;;;;;;;5.38;4.00;;;;;;;21.85;54.08;96499.69;5048007;28;20204;-71
2021/09/24 11:10:05;;;;;;;6.15;4.38;;;;;;;22.22;55.92;96491.81;5041402;28;20668;-73
2021/09/24 11:12:32;;;;;;;5.88;3.78;;;;;;;21.98;55.93;96494.03;5045472;28;20225;-72
2021/09/24 11:15:10;;;;;;;6.68;4.03;;;;;;;22.14;54.22;96492.19;5044919;28;20319;-73
2021/09/24 11:17:43;;;;;;;5.47;3.80;;;;;;;22.08;53.98;96492.34;5043865;28;21011;-72
2021/09/24 11:20:33;;;;;;;5.75;3.63;;;;;;;22.52;52.70;96488.84;5044645;28;20209;-73
2021/09/24 11:23:34;;;;;;;5.93;3.70;;;;;;;22.62;51.96;96489.81;5049616;28;20225;-73
2021/09/24 11:26:15;;;;;;;5.30;4.00;;;;;;;22.52;52.36;96486.16;5044144;28;20201;-74